sensor_id;sensor_type;location;lat;lon;timestamp;pressure;altitude;pressure_sealevel;temperature;humidity
53300;BME280;39187;48.476;8.310;2023-04-03T00:01:11;91678.69;;;-1.68;100.00
53300;BME280;39187;48.476;8.310;2023-04-03T00:03:37;91681.41;;;-1.76;100.00
53300;BME280;39187;48.476;8.310;2023-04-03T00:06:03;91678.56;;;-1.71;100.00
53300;BME280;39187;48.476;8.310;2023-04-03T00:08:30;91677.03;;;-1.72;100.00
53300;BME280;39187;48.476;8.310;2023-04-03T00:10:58;91676.50;;;-1.66;100.00
53300;BME280;39187;48.476;8.310;2023-04-03T00:13:24;91682.16;;;-1.88;100.00
53300;BME280;39187;48.476;8.310;2023-04-03T00:15:50;91685.41;;;-1.79;100.00
53300;BME280;39187;48.476;8.310;2023-04-03T00:18:16;91678.25;;;-1.82;100.00
53300;BME280;39187;48.476;8.310;2023-04-03T00:20:42;91672.66;;;-2.05;100.00
53300;BME280;39187;48.476;8.310;2023-04-03T00:23:08;91690.50;;;-2.07;100.00
53300;BME280;39187;48.476;8.310;2023-04-03T00:25:34;91678.88;;;-1.97;100.00
53300;BME280;39187;48.476;8.310;2023-04-03T00:28:00;91673.25;;;-1.99;100.00
53300;BME280;39187;48.476;8.310;2023-04-03T00:30:26;91680.28;;;-1.99;100.00
53300;BME280;39187;48.476;8.310;2023-04-03T00:32:52;91667.66;;;-1.97;100.00
53300;BME280;39187;48.476;8.310;2023-04-03T00:35:19;91670.47;;;-2.15;100.00
53300;BME280;39187;48.476;8.310;2023-04-03T00:37:45;91691.66;;;-2.16;100.00
53300;BME280;39187;48.476;8.310;2023-04-03T00:40:13;91675.72;;;-2.03;100.00
53300;BME280;39187;48.476;8.310;2023-04-03T00:42:41;91676.78;;;-2.04;100.00
53300;BME280;39187;48.476;8.310;2023-04-03T00:47:57;91671.63;;;-1.79;100.00
53300;BME280;39187;48.476;8.310;2023-04-03T00:50:26;91664.13;;;-1.93;100.00
53300;BME280;39187;48.476;8.310;2023-04-03T00:52:53;91657.59;;;-1.75;100.00
53300;BME280;39187;48.476;8.310;2023-04-03T00:55:19;91668.34;;;-1.64;100.00
53300;BME280;39187;48.476;8.310;2023-04-03T00:57:45;91670.19;;;-1.77;100.00
53300;BME280;39187;48.476;8.310;2023-04-03T01:00:14;91662.13;;;-1.96;100.00
53300;BME280;39187;48.476;8.310;2023-04-03T01:02:40;91661.72;;;-1.74;100.00
53300;BME280;39187;48.476;8.310;2023-04-03T01:05:06;91670.19;;;-1.89;100.00
53300;BME280;39187;48.476;8.310;2023-04-03T01:07:32;91671.94;;;-1.81;100.00
53300;BME280;39187;48.476;8.310;2023-04-03T01:10:03;91670.84;;;-1.55;100.00
53300;BME280;39187;48.476;8.310;2023-04-03T01:12:32;91663.13;;;-1.76;100.00
53300;BME280;39187;48.476;8.310;2023-04-03T01:15:16;91667.50;;;-1.80;100.00
53300;BME280;39187;48.476;8.310;2023-04-03T01:17:58;91657.06;;;-1.92;100.00
53300;BME280;39187;48.476;8.310;2023-04-03T01:25:36;91673.66;;;-1.97;100.00
53300;BME280;39187;48.476;8.310;2023-04-03T01:28:04;91667.50;;;-1.80;100.00
53300;BME280;39187;48.476;8.310;2023-04-03T01:30:33;91665.19;;;-1.82;100.00
53300;BME280;39187;48.476;8.310;2023-04-03T01:33:00;91660.28;;;-2.20;100.00
53300;BME280;39187;48.476;8.310;2023-04-03T01:35:26;91659.09;;;-1.98;100.00
53300;BME280;39187;48.476;8.310;2023-04-03T01:37:52;91662.38;;;-1.89;100.00
53300;BME280;39187;48.476;8.310;2023-04-03T01:40:17;91655.09;;;-1.83;100.00
53300;BME280;39187;48.476;8.310;2023-04-03T01:42:43;91672.53;;;-2.20;100.00
53300;BME280;39187;48.476;8.310;2023-04-03T01:45:09;91670.63;;;-1.99;100.00
53300;BME280;39187;48.476;8.310;2023-04-03T01:47:34;91668.78;;;-1.98;100.00
53300;BME280;39187;48.476;8.310;2023-04-03T01:50:00;91674.41;;;-2.09;100.00
53300;BME280;39187;48.476;8.310;2023-04-03T01:52:26;91673.53;;;-2.13;100.00
53300;BME280;39187;48.476;8.310;2023-04-03T01:54:51;91663.22;;;-1.97;100.00
53300;BME280;39187;48.476;8.310;2023-04-03T01:57:17;91660.75;;;-1.93;100.00
53300;BME280;39187;48.476;8.310;2023-04-03T01:59:43;91677.47;;;-1.94;100.00
53300;BME280;39187;48.476;8.310;2023-04-03T02:02:08;91679.94;;;-1.98;100.00
53300;BME280;39187;48.476;8.310;2023-04-03T02:04:34;91672.03;;;-2.02;100.00
53300;BME280;39187;48.476;8.310;2023-04-03T02:07:00;91665.84;;;-1.85;100.00
53300;BME280;39187;48.476;8.310;2023-04-03T02:09:25;91658.13;;;-1.57;100.00
53300;BME280;39187;48.476;8.310;2023-04-03T02:11:52;91660.72;;;-1.57;100.00
53300;BME280;39187;48.476;8.310;2023-04-03T02:14:18;91664.09;;;-1.44;100.00
53300;BME280;39187;48.476;8.310;2023-04-03T02:16:44;91673.78;;;-1.81;100.00
53300;BME280;39187;48.476;8.310;2023-04-03T02:19:09;91653.34;;;-1.55;100.00
53300;BME280;39187;48.476;8.310;2023-04-03T02:21:35;91662.81;;;-1.99;100.00
53300;BME280;39187;48.476;8.310;2023-04-03T02:24:01;91656.94;;;-1.84;100.00
53300;BME280;39187;48.476;8.310;2023-04-03T02:26:26;91662.28;;;-1.92;100.00
53300;BME280;39187;48.476;8.310;2023-04-03T02:28:52;91654.22;;;-1.99;100.00
53300;BME280;39187;48.476;8.310;2023-04-03T02:31:18;91655.38;;;-2.09;100.00
53300;BME280;39187;48.476;8.310;2023-04-03T02:33:43;91661.91;;;-1.91;100.00
53300;BME280;39187;48.476;8.310;2023-04-03T02:36:09;91659.50;;;-2.20;100.00
53300;BME280;39187;48.476;8.310;2023-04-03T02:38:35;91657.59;;;-1.99;100.00
53300;BME280;39187;48.476;8.310;2023-04-03T02:41:05;91651.06;;;-1.81;100.00
53300;BME280;39187;48.476;8.310;2023-04-03T02:43:32;91647.13;;;-1.50;100.00
53300;BME280;39187;48.476;8.310;2023-04-03T02:45:57;91649.41;;;-1.85;100.00
53300;BME280;39187;48.476;8.310;2023-04-03T02:48:23;91642.47;;;-2.06;100.00
53300;BME280;39187;48.476;8.310;2023-04-03T02:50:49;91654.41;;;-2.05;100.00
53300;BME280;39187;48.476;8.310;2023-04-03T02:53:15;91666.94;;;-1.86;100.00
53300;BME280;39187;48.476;8.310;2023-04-03T02:55:41;91663.44;;;-2.02;100.00
53300;BME280;39187;48.476;8.310;2023-04-03T02:58:07;91665.28;;;-1.78;100.00
53300;BME280;39187;48.476;8.310;2023-04-03T03:00:32;91665.94;;;-2.06;100.00
53300;BME280;39187;48.476;8.310;2023-04-03T03:02:58;91668.56;;;-2.06;100.00
53300;BME280;39187;48.476;8.310;2023-04-03T03:05:23;91658.84;;;-2.17;100.00
53300;BME280;39187;48.476;8.310;2023-04-03T03:07:49;91678.06;;;-2.22;100.00
53300;BME280;39187;48.476;8.310;2023-04-03T03:10:14;91668.66;;;-1.78;100.00
53300;BME280;39187;48.476;8.310;2023-04-03T03:12:40;91655.31;;;-1.88;100.00
53300;BME280;39187;48.476;8.310;2023-04-03T03:15:06;91660.84;;;-1.90;100.00
53300;BME280;39187;48.476;8.310;2023-04-03T03:17:32;91657.78;;;-1.92;100.00
53300;BME280;39187;48.476;8.310;2023-04-03T03:19:58;91664.50;;;-2.15;100.00
53300;BME280;39187;48.476;8.310;2023-04-03T03:22:23;91662.13;;;-1.96;100.00
53300;BME280;39187;48.476;8.310;2023-04-03T03:24:49;91653.63;;;-2.17;100.00
53300;BME280;39187;48.476;8.310;2023-04-03T03:27:15;91661.38;;;-2.09;100.00
53300;BME280;39187;48.476;8.310;2023-04-03T03:29:42;91677.41;;;-2.31;100.00
53300;BME280;39187;48.476;8.310;2023-04-03T03:32:07;91652.78;;;-1.97;100.00
53300;BME280;39187;48.476;8.310;2023-04-03T03:34:33;91663.09;;;-2.13;100.00
53300;BME280;39187;48.476;8.310;2023-04-03T03:36:59;91657.75;;;-2.16;100.00
53300;BME280;39187;48.476;8.310;2023-04-03T03:39:25;91655.75;;;-1.98;100.00
53300;BME280;39187;48.476;8.310;2023-04-03T03:41:50;91661.66;;;-2.34;100.00
53300;BME280;39187;48.476;8.310;2023-04-03T03:44:18;91650.13;;;-2.33;100.00
53300;BME280;39187;48.476;8.310;2023-04-03T03:46:44;91652.13;;;-2.18;100.00
53300;BME280;39187;48.476;8.310;2023-04-03T03:49:10;91667.25;;;-2.12;100.00
53300;BME280;39187;48.476;8.310;2023-04-03T03:51:38;91654.94;;;-2.23;100.00
53300;BME280;39187;48.476;8.310;2023-04-03T03:54:04;91661.38;;;-2.09;100.00
53300;BME280;39187;48.476;8.310;2023-04-03T03:56:30;91655.50;;;-2.06;100.00
53300;BME280;39187;48.476;8.310;2023-04-03T03:58:56;91655.59;;;-2.26;100.00
53300;BME280;39187;48.476;8.310;2023-04-03T04:01:23;91665.06;;;-1.97;100.00
53300;BME280;39187;48.476;8.310;2023-04-03T04:03:49;91661.38;;;-2.54;100.00
53300;BME280;39187;48.476;8.310;2023-04-03T04:06:15;91656.31;;;-2.38;100.00
53300;BME280;39187;48.476;8.310;2023-04-03T04:08:40;91664.09;;;-2.05;100.00
53300;BME280;39187;48.476;8.310;2023-04-03T04:11:07;91659.28;;;-2.15;100.00
53300;BME280;39187;48.476;8.310;2023-04-03T04:13:33;91655.06;;;-2.20;100.00
53300;BME280;39187;48.476;8.310;2023-04-03T04:15:59;91659.41;;;-2.12;100.00
53300;BME280;39187;48.476;8.310;2023-04-03T04:18:24;91673.06;;;-2.27;100.00
53300;BME280;39187;48.476;8.310;2023-04-03T04:20:50;91661.31;;;-2.45;100.00
53300;BME280;39187;48.476;8.310;2023-04-03T04:23:17;91653.66;;;-2.05;100.00
53300;BME280;39187;48.476;8.310;2023-04-03T04:25:47;91659.97;;;-2.06;100.00
53300;BME280;39187;48.476;8.310;2023-04-03T04:28:13;91661.59;;;-2.02;100.00
53300;BME280;39187;48.476;8.310;2023-04-03T04:30:38;91662.66;;;-2.15;100.00
53300;BME280;39187;48.476;8.310;2023-04-03T04:33:04;91684.84;;;-2.09;100.00
53300;BME280;39187;48.476;8.310;2023-04-03T04:35:30;91664.00;;;-2.42;100.00
53300;BME280;39187;48.476;8.310;2023-04-03T04:37:56;91656.56;;;-2.31;100.00
53300;BME280;39187;48.476;8.310;2023-04-03T04:40:22;91658.13;;;-2.51;100.00
53300;BME280;39187;48.476;8.310;2023-04-03T04:42:47;91658.31;;;-2.56;100.00
53300;BME280;39187;48.476;8.310;2023-04-03T04:45:13;91657.84;;;-2.37;100.00
53300;BME280;39187;48.476;8.310;2023-04-03T04:47:40;91671.59;;;-2.49;100.00
53300;BME280;39187;48.476;8.310;2023-04-03T04:50:06;91664.06;;;-2.17;100.00
53300;BME280;39187;48.476;8.310;2023-04-03T04:52:32;91659.97;;;-2.51;100.00
53300;BME280;39187;48.476;8.310;2023-04-03T04:54:57;91662.91;;;-2.53;100.00
53300;BME280;39187;48.476;8.310;2023-04-03T04:57:23;91665.13;;;-2.30;100.00
53300;BME280;39187;48.476;8.310;2023-04-03T04:59:48;91676.09;;;-2.70;100.00
53300;BME280;39187;48.476;8.310;2023-04-03T05:02:14;91671.84;;;-2.42;100.00
53300;BME280;39187;48.476;8.310;2023-04-03T05:04:40;91671.72;;;-2.45;100.00
53300;BME280;39187;48.476;8.310;2023-04-03T05:07:05;91666.03;;;-2.59;100.00
53300;BME280;39187;48.476;8.310;2023-04-03T05:09:31;91672.38;;;-2.36;100.00
53300;BME280;39187;48.476;8.310;2023-04-03T05:11:56;91669.53;;;-2.43;100.00
53300;BME280;39187;48.476;8.310;2023-04-03T05:14:22;91672.09;;;-2.22;100.00
53300;BME280;39187;48.476;8.310;2023-04-03T05:16:48;91689.31;;;-2.42;100.00
53300;BME280;39187;48.476;8.310;2023-04-03T05:19:18;91678.53;;;-2.53;100.00
53300;BME280;39187;48.476;8.310;2023-04-03T05:21:44;91675.72;;;-2.48;100.00
53300;BME280;39187;48.476;8.310;2023-04-03T05:24:09;91683.16;;;-2.70;100.00
53300;BME280;39187;48.476;8.310;2023-04-03T05:26:35;91696.31;;;-2.55;100.00
53300;BME280;39187;48.476;8.310;2023-04-03T05:29:00;91693.69;;;-2.34;100.00
53300;BME280;39187;48.476;8.310;2023-04-03T05:31:26;91694.44;;;-2.66;100.00
53300;BME280;39187;48.476;8.310;2023-04-03T05:33:54;91693.38;;;-2.65;100.00
53300;BME280;39187;48.476;8.310;2023-04-03T05:36:20;91683.31;;;-2.55;100.00
53300;BME280;39187;48.476;8.310;2023-04-03T05:38:47;91691.31;;;-2.60;100.00
53300;BME280;39187;48.476;8.310;2023-04-03T05:41:13;91690.09;;;-2.62;100.00
53300;BME280;39187;48.476;8.310;2023-04-03T05:43:39;91690.88;;;-2.62;100.00
53300;BME280;39187;48.476;8.310;2023-04-03T05:46:12;91691.72;;;-2.70;100.00
53300;BME280;39187;48.476;8.310;2023-04-03T05:48:38;91689.38;;;-2.63;100.00
53300;BME280;39187;48.476;8.310;2023-04-03T05:51:05;91684.31;;;-2.47;100.00
53300;BME280;39187;48.476;8.310;2023-04-03T05:53:33;91698.94;;;-2.55;100.00
53300;BME280;39187;48.476;8.310;2023-04-03T05:56:01;91690.69;;;-2.57;100.00
53300;BME280;39187;48.476;8.310;2023-04-03T05:58:26;91690.34;;;-2.55;100.00
53300;BME280;39187;48.476;8.310;2023-04-03T06:00:52;91691.00;;;-2.25;100.00
53300;BME280;39187;48.476;8.310;2023-04-03T06:03:17;91695.75;;;-2.27;100.00
53300;BME280;39187;48.476;8.310;2023-04-03T06:05:43;91705.91;;;-2.14;100.00
53300;BME280;39187;48.476;8.310;2023-04-03T06:08:09;91700.00;;;-2.56;100.00
53300;BME280;39187;48.476;8.310;2023-04-03T06:10:35;91705.59;;;-2.45;100.00
53300;BME280;39187;48.476;8.310;2023-04-03T06:13:01;91697.69;;;-2.69;100.00
53300;BME280;39187;48.476;8.310;2023-04-03T06:15:27;91700.88;;;-2.85;100.00
53300;BME280;39187;48.476;8.310;2023-04-03T06:17:53;91703.66;;;-2.36;100.00
53300;BME280;39187;48.476;8.310;2023-04-03T06:20:19;91700.59;;;-2.50;100.00
53300;BME280;39187;48.476;8.310;2023-04-03T06:22:44;91696.75;;;-2.65;100.00
53300;BME280;39187;48.476;8.310;2023-04-03T06:25:11;91709.88;;;-2.61;100.00
53300;BME280;39187;48.476;8.310;2023-04-03T06:27:37;91701.41;;;-2.37;100.00
53300;BME280;39187;48.476;8.310;2023-04-03T06:30:04;91716.78;;;-2.45;100.00
53300;BME280;39187;48.476;8.310;2023-04-03T06:32:30;91713.78;;;-2.34;100.00
53300;BME280;39187;48.476;8.310;2023-04-03T06:34:56;91708.00;;;-2.40;100.00
53300;BME280;39187;48.476;8.310;2023-04-03T06:37:22;91710.72;;;-2.36;100.00
53300;BME280;39187;48.476;8.310;2023-04-03T06:39:51;91704.59;;;-2.20;100.00
53300;BME280;39187;48.476;8.310;2023-04-03T06:42:17;91699.41;;;-2.40;100.00
53300;BME280;39187;48.476;8.310;2023-04-03T06:44:42;91697.06;;;-2.33;100.00
53300;BME280;39187;48.476;8.310;2023-04-03T06:47:11;91703.94;;;-2.50;100.00
53300;BME280;39187;48.476;8.310;2023-04-03T06:49:37;91704.00;;;-1.92;100.00
53300;BME280;39187;48.476;8.310;2023-04-03T06:52:03;91702.22;;;-2.13;100.00
53300;BME280;39187;48.476;8.310;2023-04-03T06:54:30;91710.97;;;-2.29;100.00
53300;BME280;39187;48.476;8.310;2023-04-03T06:56:56;91715.50;;;-2.38;100.00
53300;BME280;39187;48.476;8.310;2023-04-03T06:59:21;91711.16;;;-2.02;100.00
53300;BME280;39187;48.476;8.310;2023-04-03T07:01:47;91713.78;;;-1.89;100.00
53300;BME280;39187;48.476;8.310;2023-04-03T07:04:14;91709.34;;;-2.22;100.00
53300;BME280;39187;48.476;8.310;2023-04-03T07:06:40;91723.91;;;-2.21;100.00
53300;BME280;39187;48.476;8.310;2023-04-03T07:09:07;91716.16;;;-2.29;100.00
53300;BME280;39187;48.476;8.310;2023-04-03T07:11:33;91717.59;;;-2.32;100.00
53300;BME280;39187;48.476;8.310;2023-04-03T07:13:58;91741.13;;;-2.40;100.00
53300;BME280;39187;48.476;8.310;2023-04-03T07:16:24;91721.00;;;-2.19;100.00
53300;BME280;39187;48.476;8.310;2023-04-03T07:18:49;91725.50;;;-1.95;100.00
53300;BME280;39187;48.476;8.310;2023-04-03T07:21:15;91728.22;;;-2.37;100.00
53300;BME280;39187;48.476;8.310;2023-04-03T07:23:40;91715.53;;;-2.26;100.00
53300;BME280;39187;48.476;8.310;2023-04-03T07:26:06;91726.84;;;-2.22;100.00
53300;BME280;39187;48.476;8.310;2023-04-03T07:28:33;91734.44;;;-2.17;100.00
53300;BME280;39187;48.476;8.310;2023-04-03T07:31:11;91734.38;;;-2.09;100.00
53300;BME280;39187;48.476;8.310;2023-04-03T07:33:39;91731.28;;;-2.23;100.00
53300;BME280;39187;48.476;8.310;2023-04-03T07:36:06;91727.56;;;-2.34;100.00
53300;BME280;39187;48.476;8.310;2023-04-03T07:38:33;91742.72;;;-2.15;100.00
53300;BME280;39187;48.476;8.310;2023-04-03T07:40:58;91740.47;;;-2.05;100.00
53300;BME280;39187;48.476;8.310;2023-04-03T07:43:24;91762.41;;;-2.18;100.00
53300;BME280;39187;48.476;8.310;2023-04-03T07:45:50;91752.28;;;-2.19;100.00
53300;BME280;39187;48.476;8.310;2023-04-03T07:48:18;91743.66;;;-1.87;100.00
53300;BME280;39187;48.476;8.310;2023-04-03T07:50:44;91748.25;;;-2.17;100.00
53300;BME280;39187;48.476;8.310;2023-04-03T07:53:09;91767.50;;;-2.09;100.00
53300;BME280;39187;48.476;8.310;2023-04-03T07:55:36;91748.09;;;-2.32;100.00
53300;BME280;39187;48.476;8.310;2023-04-03T07:58:09;91754.72;;;-2.02;100.00
53300;BME280;39187;48.476;8.310;2023-04-03T08:00:35;91751.63;;;-2.16;100.00
53300;BME280;39187;48.476;8.310;2023-04-03T08:03:00;91750.00;;;-2.21;100.00
53300;BME280;39187;48.476;8.310;2023-04-03T08:05:26;91756.78;;;-1.95;100.00
53300;BME280;39187;48.476;8.310;2023-04-03T08:07:52;91754.91;;;-2.07;100.00
53300;BME280;39187;48.476;8.310;2023-04-03T08:10:17;91762.44;;;-2.06;100.00
53300;BME280;39187;48.476;8.310;2023-04-03T08:12:46;91760.31;;;-2.24;100.00
53300;BME280;39187;48.476;8.310;2023-04-03T08:15:12;91753.03;;;-2.19;100.00
53300;BME280;39187;48.476;8.310;2023-04-03T08:17:37;91763.06;;;-2.09;100.00
53300;BME280;39187;48.476;8.310;2023-04-03T08:20:04;91753.38;;;-2.41;100.00
53300;BME280;39187;48.476;8.310;2023-04-03T08:22:32;91760.63;;;-2.26;100.00
53300;BME280;39187;48.476;8.310;2023-04-03T08:24:58;91763.56;;;-2.48;100.00
53300;BME280;39187;48.476;8.310;2023-04-03T08:27:23;91756.94;;;-2.25;100.00
53300;BME280;39187;48.476;8.310;2023-04-03T08:29:49;91765.19;;;-1.90;100.00
53300;BME280;39187;48.476;8.310;2023-04-03T08:32:14;91750.31;;;-1.77;100.00
53300;BME280;39187;48.476;8.310;2023-04-03T08:34:41;91765.09;;;-2.14;100.00
53300;BME280;39187;48.476;8.310;2023-04-03T08:37:06;91771.81;;;-1.92;100.00
53300;BME280;39187;48.476;8.310;2023-04-03T08:39:32;91779.78;;;-1.65;100.00
53300;BME280;39187;48.476;8.310;2023-04-03T08:41:58;91771.59;;;-1.87;100.00
53300;BME280;39187;48.476;8.310;2023-04-03T08:44:54;91774.03;;;-1.70;100.00
53300;BME280;39187;48.476;8.310;2023-04-03T08:47:45;91741.00;;;-1.30;100.00
53300;BME280;39187;48.476;8.310;2023-04-03T08:50:15;91771.56;;;-1.06;100.00
53300;BME280;39187;48.476;8.310;2023-04-03T08:52:45;91770.25;;;-1.60;100.00
53300;BME280;39187;48.476;8.310;2023-04-03T08:55:22;91781.22;;;-1.55;100.00
53300;BME280;39187;48.476;8.310;2023-04-03T08:57:57;91772.09;;;-1.37;100.00
53300;BME280;39187;48.476;8.310;2023-04-03T09:00:25;91769.94;;;-1.35;100.00
53300;BME280;39187;48.476;8.310;2023-04-03T09:02:55;91769.94;;;-0.98;100.00
53300;BME280;39187;48.476;8.310;2023-04-03T09:08:00;91794.59;;;-1.44;100.00
53300;BME280;39187;48.476;8.310;2023-04-03T09:10:33;91783.41;;;-1.45;100.00
53300;BME280;39187;48.476;8.310;2023-04-03T09:13:18;91771.66;;;-1.27;100.00
53300;BME280;39187;48.476;8.310;2023-04-03T09:15:47;91769.59;;;-1.21;100.00
53300;BME280;39187;48.476;8.310;2023-04-03T09:18:32;91774.41;;;-1.23;100.00
53300;BME280;39187;48.476;8.310;2023-04-03T09:21:08;91768.72;;;-1.13;100.00
53300;BME280;39187;48.476;8.310;2023-04-03T09:26:16;91770.25;;;-1.00;100.00
53300;BME280;39187;48.476;8.310;2023-04-03T09:28:42;91779.47;;;-0.66;100.00
53300;BME280;39187;48.476;8.310;2023-04-03T09:31:23;91779.72;;;-1.19;100.00
53300;BME280;39187;48.476;8.310;2023-04-03T09:33:53;91769.72;;;-1.17;100.00
53300;BME280;39187;48.476;8.310;2023-04-03T09:36:39;91774.28;;;-1.14;100.00
53300;BME280;39187;48.476;8.310;2023-04-03T09:39:07;91764.44;;;-0.81;100.00
53300;BME280;39187;48.476;8.310;2023-04-03T09:41:35;91772.25;;;-0.57;100.00
53300;BME280;39187;48.476;8.310;2023-04-03T09:44:00;91767.06;;;-0.81;99.60
53300;BME280;39187;48.476;8.310;2023-04-03T09:48:58;91778.97;;;-0.44;94.70
53300;BME280;39187;48.476;8.310;2023-04-03T09:51:28;91784.25;;;-0.28;93.72
53300;BME280;39187;48.476;8.310;2023-04-03T09:53:55;91773.56;;;-0.23;89.80
53300;BME280;39187;48.476;8.310;2023-04-03T09:56:25;91777.00;;;0.37;93.00
53300;BME280;39187;48.476;8.310;2023-04-03T10:01:37;91765.63;;;0.76;90.10
53300;BME280;39187;48.476;8.310;2023-04-03T10:04:14;91761.06;;;1.24;96.44
53300;BME280;39187;48.476;8.310;2023-04-03T10:06:43;91763.75;;;1.63;95.76
53300;BME280;39187;48.476;8.310;2023-04-03T10:12:06;91770.56;;;1.48;86.11
53300;BME280;39187;48.476;8.310;2023-04-03T10:14:36;91778.94;;;1.18;83.99
53300;BME280;39187;48.476;8.310;2023-04-03T10:19:41;91769.00;;;1.63;89.91
53300;BME280;39187;48.476;8.310;2023-04-03T10:24:50;91782.34;;;0.56;92.46
53300;BME280;39187;48.476;8.310;2023-04-03T10:29:53;91770.88;;;0.17;91.06
53300;BME280;39187;48.476;8.310;2023-04-03T10:38:16;91806.00;;;-0.12;90.02
53300;BME280;39187;48.476;8.310;2023-04-03T10:46:36;91773.16;;;-0.37;92.93
53300;BME280;39187;48.476;8.310;2023-04-03T10:49:29;91779.56;;;-0.22;92.19
53300;BME280;39187;48.476;8.310;2023-04-03T10:52:23;91768.47;;;0.24;91.42
53300;BME280;39187;48.476;8.310;2023-04-03T10:55:09;91761.84;;;0.15;89.69
53300;BME280;39187;48.476;8.310;2023-04-03T10:57:40;91784.16;;;-0.31;89.91
53300;BME280;39187;48.476;8.310;2023-04-03T11:00:48;91768.03;;;-0.06;94.15
53300;BME280;39187;48.476;8.310;2023-04-03T11:03:13;91770.66;;;-0.06;96.09
53300;BME280;39187;48.476;8.310;2023-04-03T11:05:49;91801.84;;;-0.01;97.19
53300;BME280;39187;48.476;8.310;2023-04-03T11:08:28;91788.41;;;-0.27;92.56
53300;BME280;39187;48.476;8.310;2023-04-03T11:10:59;91769.88;;;-0.06;95.31
53300;BME280;39187;48.476;8.310;2023-04-03T11:13:34;91768.44;;;-0.19;94.85
53300;BME280;39187;48.476;8.310;2023-04-03T11:16:02;91775.81;;;0.34;96.09
53300;BME280;39187;48.476;8.310;2023-04-03T11:18:37;91756.34;;;0.20;92.34
53300;BME280;39187;48.476;8.310;2023-04-03T11:21:19;91767.19;;;-0.10;93.12
53300;BME280;39187;48.476;8.310;2023-04-03T11:23:47;91768.97;;;0.30;91.64
53300;BME280;39187;48.476;8.310;2023-04-03T11:26:18;91764.25;;;-0.08;92.21
53300;BME280;39187;48.476;8.310;2023-04-03T11:28:46;91759.81;;;-0.48;91.43
53300;BME280;39187;48.476;8.310;2023-04-03T11:31:46;91763.66;;;-0.29;90.31
53300;BME280;39187;48.476;8.310;2023-04-03T11:34:45;91765.47;;;-0.46;93.63
53300;BME280;39187;48.476;8.310;2023-04-03T11:37:28;91771.59;;;-0.14;94.98
53300;BME280;39187;48.476;8.310;2023-04-03T11:40:00;91768.94;;;-0.42;93.26
53300;BME280;39187;48.476;8.310;2023-04-03T11:50:56;91769.94;;;-0.18;98.79
53300;BME280;39187;48.476;8.310;2023-04-03T11:55:59;91770.50;;;0.03;98.49
53300;BME280;39187;48.476;8.310;2023-04-03T11:58:31;91748.13;;;-0.10;95.18
53300;BME280;39187;48.476;8.310;2023-04-03T12:13:36;91769.84;;;-0.22;98.11
53300;BME280;39187;48.476;8.310;2023-04-03T12:16:04;91747.59;;;0.12;96.67
53300;BME280;39187;48.476;8.310;2023-04-03T12:21:15;91753.84;;;0.23;95.28
53300;BME280;39187;48.476;8.310;2023-04-03T12:24:13;91752.75;;;-0.19;96.53
53300;BME280;39187;48.476;8.310;2023-04-03T12:36:14;91750.78;;;0.21;92.97
53300;BME280;39187;48.476;8.310;2023-04-03T12:48:38;91742.03;;;-0.14;94.63
53300;BME280;39187;48.476;8.310;2023-04-03T12:51:05;91743.38;;;0.23;92.71
53300;BME280;39187;48.476;8.310;2023-04-03T12:53:33;91735.50;;;0.08;94.11
53300;BME280;39187;48.476;8.310;2023-04-03T12:56:20;91740.31;;;0.06;93.03
53300;BME280;39187;48.476;8.310;2023-04-03T12:58:47;91739.84;;;0.47;92.64
53300;BME280;39187;48.476;8.310;2023-04-03T13:01:15;91741.78;;;0.34;92.29
53300;BME280;39187;48.476;8.310;2023-04-03T13:03:48;91734.25;;;0.17;91.23
53300;BME280;39187;48.476;8.310;2023-04-03T13:06:19;91737.84;;;-0.03;91.18
53300;BME280;39187;48.476;8.310;2023-04-03T13:08:55;91736.66;;;-0.33;94.90
53300;BME280;39187;48.476;8.310;2023-04-03T13:11:27;91763.81;;;-0.10;93.28
53300;BME280;39187;48.476;8.310;2023-04-03T13:14:00;91740.19;;;-0.14;94.71
53300;BME280;39187;48.476;8.310;2023-04-03T13:16:27;91743.44;;;0.11;94.59
53300;BME280;39187;48.476;8.310;2023-04-03T13:18:54;91752.44;;;-0.30;95.24
53300;BME280;39187;48.476;8.310;2023-04-03T13:21:26;91748.34;;;0.28;94.43
53300;BME280;39187;48.476;8.310;2023-04-03T13:23:56;91734.69;;;0.51;93.35
53300;BME280;39187;48.476;8.310;2023-04-03T13:26:25;91746.69;;;-0.08;92.92
53300;BME280;39187;48.476;8.310;2023-04-03T13:28:52;91739.44;;;-0.14;95.89
53300;BME280;39187;48.476;8.310;2023-04-03T13:31:33;91741.09;;;-0.22;96.51
53300;BME280;39187;48.476;8.310;2023-04-03T13:34:06;91738.09;;;-0.08;94.52
53300;BME280;39187;48.476;8.310;2023-04-03T13:36:36;91739.63;;;-0.07;95.76
53300;BME280;39187;48.476;8.310;2023-04-03T13:41:37;91735.84;;;0.22;92.61
53300;BME280;39187;48.476;8.310;2023-04-03T13:46:53;91739.31;;;-0.18;89.95
53300;BME280;39187;48.476;8.310;2023-04-03T13:50:21;91729.00;;;0.17;89.59
53300;BME280;39187;48.476;8.310;2023-04-03T13:52:33;91736.69;;;0.10;88.79
53300;BME280;39187;48.476;8.310;2023-04-03T13:55:17;91742.00;;;0.14;89.46
53300;BME280;39187;48.476;8.310;2023-04-03T13:57:57;91743.06;;;-0.03;92.04
53300;BME280;39187;48.476;8.310;2023-04-03T14:03:00;91739.06;;;-0.13;92.18
53300;BME280;39187;48.476;8.310;2023-04-03T14:05:26;91749.22;;;-0.11;92.10
53300;BME280;39187;48.476;8.310;2023-04-03T14:07:53;91738.41;;;-0.10;91.63
53300;BME280;39187;48.476;8.310;2023-04-03T14:10:20;91729.03;;;-0.11;91.43
53300;BME280;39187;48.476;8.310;2023-04-03T14:12:46;91728.06;;;-0.34;91.05
53300;BME280;39187;48.476;8.310;2023-04-03T14:15:27;91735.63;;;-0.17;90.20
53300;BME280;39187;48.476;8.310;2023-04-03T14:17:53;91714.47;;;0.20;89.64
53300;BME280;39187;48.476;8.310;2023-04-03T14:20:26;91721.25;;;-0.23;88.56
53300;BME280;39187;48.476;8.310;2023-04-03T14:22:53;91730.09;;;0.16;89.75
53300;BME280;39187;48.476;8.310;2023-04-03T14:25:20;91723.09;;;0.05;90.95
53300;BME280;39187;48.476;8.310;2023-04-03T14:27:50;91734.59;;;-0.12;90.47
53300;BME280;39187;48.476;8.310;2023-04-03T14:30:35;91722.22;;;-0.15;88.11
53300;BME280;39187;48.476;8.310;2023-04-03T14:33:02;91733.19;;;-0.10;89.54
53300;BME280;39187;48.476;8.310;2023-04-03T14:35:29;91723.38;;;-0.13;90.51